Guilford, North Carolina
Current Conditions -  °F | °C
As of 9:54 AM on Sunday 21 Dec 2014 (Local Time) from KGSO Reporting Station
Haze Haze  
Wind Chill: 41°   Ceiling: 2300
Heat Index: 41°   Visibility: 6mi
Dew Point: 35°   Wind: 3mph
Humidity: 79%   Direction: 100°E
Pressure: 30.29"   Gusts: NA
Location:  36.1197°N, 79.8944°W
Report Text: KGSO 211454Z 10003KT 6SM BR OVC023 05/02 A3029 RMK AO2 SLP259 T00500017 53009
Loading
Personal Weather Stations






























Interactive Weather Map New forecast layout! Learn more

10-Day Weather Forecast

Advertisements
Track Severe Weather on mobile